sensor_id;sensor_type;location;lat;lon;timestamp;temperature;humidity
610;DHT22;292;48.800;9.216;2022-08-19T14:45:56;25.90;62.80
610;DHT22;292;48.800;9.216;2022-08-19T14:48:23;24.70;72.80
610;DHT22;292;48.800;9.216;2022-08-19T14:50:52;24.50;73.50
610;DHT22;292;48.800;9.216;2022-08-19T14:53:20;24.30;73.90
610;DHT22;292;48.800;9.216;2022-08-19T14:55:48;24.20;74.40
610;DHT22;292;48.800;9.216;2022-08-19T14:58:16;24.10;74.70
610;DHT22;292;48.800;9.216;2022-08-19T15:01:10;24.00;75.00
610;DHT22;292;48.800;9.216;2022-08-19T15:03:39;23.90;75.50
610;DHT22;292;48.800;9.216;2022-08-19T15:06:07;23.80;75.70
610;DHT22;292;48.800;9.216;2022-08-19T15:08:39;23.70;76.00
610;DHT22;292;48.800;9.216;2022-08-19T15:11:08;23.70;76.10
610;DHT22;292;48.800;9.216;2022-08-19T15:13:38;23.70;76.40
610;DHT22;292;48.800;9.216;2022-08-19T15:16:23;23.60;76.70
610;DHT22;292;48.800;9.216;2022-08-19T15:18:56;23.60;77.10
610;DHT22;292;48.800;9.216;2022-08-19T15:21:27;23.60;77.10
610;DHT22;292;48.800;9.216;2022-08-19T15:23:57;23.60;77.30
610;DHT22;292;48.800;9.216;2022-08-19T15:26:24;23.60;77.40
610;DHT22;292;48.800;9.216;2022-08-19T15:28:53;23.50;77.40
610;DHT22;292;48.800;9.216;2022-08-19T15:31:23;23.50;77.50
610;DHT22;292;48.800;9.216;2022-08-19T15:33:50;23.50;77.80
610;DHT22;292;48.800;9.216;2022-08-19T15:36:17;23.50;77.80
610;DHT22;292;48.800;9.216;2022-08-19T15:38:44;23.40;78.00
610;DHT22;292;48.800;9.216;2022-08-19T15:41:16;23.40;78.00
610;DHT22;292;48.800;9.216;2022-08-19T15:43:51;23.40;78.00
610;DHT22;292;48.800;9.216;2022-08-19T15:46:21;23.40;78.10
610;DHT22;292;48.800;9.216;2022-08-19T15:48:52;23.40;78.10
610;DHT22;292;48.800;9.216;2022-08-19T15:51:24;23.40;78.30
610;DHT22;292;48.800;9.216;2022-08-19T15:54:17;23.30;78.40
610;DHT22;292;48.800;9.216;2022-08-19T15:56:46;23.30;78.60
610;DHT22;292;48.800;9.216;2022-08-19T15:59:31;23.30;78.60
610;DHT22;292;48.800;9.216;2022-08-19T16:02:17;23.30;78.70
610;DHT22;292;48.800;9.216;2022-08-19T16:05:07;23.40;78.60
610;DHT22;292;48.800;9.216;2022-08-19T16:07:51;23.40;78.40
610;DHT22;292;48.800;9.216;2022-08-19T16:10:19;23.50;78.30
610;DHT22;292;48.800;9.216;2022-08-19T16:12:46;23.50;78.00
610;DHT22;292;48.800;9.216;2022-08-19T16:15:14;23.50;77.80
610;DHT22;292;48.800;9.216;2022-08-19T16:17:42;23.50;77.70
610;DHT22;292;48.800;9.216;2022-08-19T16:20:11;23.50;77.50
610;DHT22;292;48.800;9.216;2022-08-19T16:22:41;23.60;77.50
610;DHT22;292;48.800;9.216;2022-08-19T16:25:08;23.60;77.40
610;DHT22;292;48.800;9.216;2022-08-19T16:27:38;23.60;77.30
610;DHT22;292;48.800;9.216;2022-08-19T16:30:08;23.70;77.10
610;DHT22;292;48.800;9.216;2022-08-19T16:32:45;23.70;76.80
610;DHT22;292;48.800;9.216;2022-08-19T16:35:19;23.70;76.70
610;DHT22;292;48.800;9.216;2022-08-19T16:38:16;23.70;76.40
610;DHT22;292;48.800;9.216;2022-08-19T16:40:46;23.70;76.20
610;DHT22;292;48.800;9.216;2022-08-19T16:43:13;23.70;76.10
610;DHT22;292;48.800;9.216;2022-08-19T16:45:41;23.70;76.10
610;DHT22;292;48.800;9.216;2022-08-19T16:48:09;23.60;76.20
610;DHT22;292;48.800;9.216;2022-08-19T16:50:38;23.50;76.40
610;DHT22;292;48.800;9.216;2022-08-19T16:53:06;23.50;76.40
610;DHT22;292;48.800;9.216;2022-08-19T16:55:34;23.50;76.70
610;DHT22;292;48.800;9.216;2022-08-19T16:58:02;23.40;76.70
610;DHT22;292;48.800;9.216;2022-08-19T17:00:43;23.40;77.00
610;DHT22;292;48.800;9.216;2022-08-19T17:03:11;23.40;77.10
610;DHT22;292;48.800;9.216;2022-08-19T17:05:51;23.40;77.30
610;DHT22;292;48.800;9.216;2022-08-19T17:08:33;23.40;77.50
610;DHT22;292;48.800;9.216;2022-08-19T17:11:11;23.40;77.70
610;DHT22;292;48.800;9.216;2022-08-19T17:17:01;23.30;78.00
610;DHT22;292;48.800;9.216;2022-08-19T17:19:48;23.20;78.40
610;DHT22;292;48.800;9.216;2022-08-19T17:22:30;23.20;78.40
610;DHT22;292;48.800;9.216;2022-08-19T17:25:00;23.20;78.60
610;DHT22;292;48.800;9.216;2022-08-19T17:27:27;23.10;78.70
610;DHT22;292;48.800;9.216;2022-08-19T17:29:55;23.10;78.80
610;DHT22;292;48.800;9.216;2022-08-19T17:32:24;23.00;79.00
610;DHT22;292;48.800;9.216;2022-08-19T17:34:52;23.00;79.30
610;DHT22;292;48.800;9.216;2022-08-19T17:37:29;23.00;79.60
610;DHT22;292;48.800;9.216;2022-08-19T17:39:58;22.90;79.70
610;DHT22;292;48.800;9.216;2022-08-19T17:42:25;22.90;79.70
610;DHT22;292;48.800;9.216;2022-08-19T17:44:52;22.90;79.90
610;DHT22;292;48.800;9.216;2022-08-19T17:47:24;22.80;80.10
610;DHT22;292;48.800;9.216;2022-08-19T17:49:51;22.80;80.40
610;DHT22;292;48.800;9.216;2022-08-19T17:52:19;22.70;80.60
610;DHT22;292;48.800;9.216;2022-08-19T17:54:46;22.70;80.90
610;DHT22;292;48.800;9.216;2022-08-19T17:57:17;22.70;81.00
610;DHT22;292;48.800;9.216;2022-08-19T17:59:44;22.70;81.20
610;DHT22;292;48.800;9.216;2022-08-19T18:02:12;22.70;81.30
610;DHT22;292;48.800;9.216;2022-08-19T18:04:40;22.70;81.40
610;DHT22;292;48.800;9.216;2022-08-19T18:07:07;22.60;81.40
610;DHT22;292;48.800;9.216;2022-08-19T18:09:37;22.60;81.60
610;DHT22;292;48.800;9.216;2022-08-19T18:12:08;22.60;81.60
610;DHT22;292;48.800;9.216;2022-08-19T18:14:38;22.60;81.70
610;DHT22;292;48.800;9.216;2022-08-19T18:17:10;22.60;81.70
610;DHT22;292;48.800;9.216;2022-08-19T18:19:50;22.50;82.00
610;DHT22;292;48.800;9.216;2022-08-19T18:22:24;22.50;82.10
610;DHT22;292;48.800;9.216;2022-08-19T18:25:04;22.40;82.40
610;DHT22;292;48.800;9.216;2022-08-19T18:27:34;22.50;82.40
610;DHT22;292;48.800;9.216;2022-08-19T18:36:28;22.50;82.50
610;DHT22;292;48.800;9.216;2022-08-19T18:38:55;22.50;82.40
610;DHT22;292;48.800;9.216;2022-08-19T18:41:40;22.50;82.40
610;DHT22;292;48.800;9.216;2022-08-19T18:44:25;22.50;82.20
610;DHT22;292;48.800;9.216;2022-08-19T18:47:09;22.50;82.20
610;DHT22;292;48.800;9.216;2022-08-19T18:49:53;22.50;82.20
610;DHT22;292;48.800;9.216;2022-08-19T18:52:22;22.50;82.00
610;DHT22;292;48.800;9.216;2022-08-19T18:54:54;22.50;82.00
610;DHT22;292;48.800;9.216;2022-08-19T18:57:21;22.60;82.00
610;DHT22;292;48.800;9.216;2022-08-19T18:59:49;22.60;81.90
610;DHT22;292;48.800;9.216;2022-08-19T19:02:17;22.60;81.90
610;DHT22;292;48.800;9.216;2022-08-19T19:04:46;22.60;81.90
610;DHT22;292;48.800;9.216;2022-08-19T19:07:14;22.60;81.70
610;DHT22;292;48.800;9.216;2022-08-19T19:09:45;22.60;81.70
610;DHT22;292;48.800;9.216;2022-08-19T19:12:13;22.60;81.70
610;DHT22;292;48.800;9.216;2022-08-19T19:14:43;22.60;81.70
610;DHT22;292;48.800;9.216;2022-08-19T19:17:14;22.70;81.60
610;DHT22;292;48.800;9.216;2022-08-19T19:19:43;22.60;81.60
610;DHT22;292;48.800;9.216;2022-08-19T19:22:19;22.70;81.60
610;DHT22;292;48.800;9.216;2022-08-19T19:24:57;22.70;81.60
610;DHT22;292;48.800;9.216;2022-08-19T19:27:28;22.70;81.40
610;DHT22;292;48.800;9.216;2022-08-19T19:29:55;22.70;81.30
610;DHT22;292;48.800;9.216;2022-08-19T19:32:25;22.70;81.40
610;DHT22;292;48.800;9.216;2022-08-19T19:34:53;22.70;81.40
610;DHT22;292;48.800;9.216;2022-08-19T19:37:20;22.70;81.30
610;DHT22;292;48.800;9.216;2022-08-19T19:39:48;22.70;81.30
610;DHT22;292;48.800;9.216;2022-08-19T19:42:20;22.70;81.30
610;DHT22;292;48.800;9.216;2022-08-19T19:44:53;22.70;81.30
610;DHT22;292;48.800;9.216;2022-08-19T19:47:21;22.70;81.40
610;DHT22;292;48.800;9.216;2022-08-19T19:49:49;22.70;81.40
610;DHT22;292;48.800;9.216;2022-08-19T19:52:18;22.70;81.60
610;DHT22;292;48.800;9.216;2022-08-19T19:54:48;22.70;81.60
610;DHT22;292;48.800;9.216;2022-08-19T19:57:17;22.70;81.70
610;DHT22;292;48.800;9.216;2022-08-19T19:59:44;22.70;81.90
610;DHT22;292;48.800;9.216;2022-08-19T20:02:21;22.70;81.90
610;DHT22;292;48.800;9.216;2022-08-19T20:04:51;22.70;82.00
610;DHT22;292;48.800;9.216;2022-08-19T20:07:23;22.60;82.10
610;DHT22;292;48.800;9.216;2022-08-19T20:10:10;22.60;82.10
610;DHT22;292;48.800;9.216;2022-08-19T20:12:41;22.60;82.10
610;DHT22;292;48.800;9.216;2022-08-19T20:15:09;22.70;82.10
610;DHT22;292;48.800;9.216;2022-08-19T20:21:45;22.70;82.10
610;DHT22;292;48.800;9.216;2022-08-19T20:24:15;22.70;82.10
610;DHT22;292;48.800;9.216;2022-08-19T20:26:44;22.70;82.00
610;DHT22;292;48.800;9.216;2022-08-19T20:29:17;22.70;82.00
610;DHT22;292;48.800;9.216;2022-08-19T20:31:47;22.80;81.90
610;DHT22;292;48.800;9.216;2022-08-19T20:34:16;22.80;81.70
610;DHT22;292;48.800;9.216;2022-08-19T20:36:45;22.80;81.90
610;DHT22;292;48.800;9.216;2022-08-19T20:39:28;22.80;81.70
610;DHT22;292;48.800;9.216;2022-08-19T20:41:55;22.70;81.90
610;DHT22;292;48.800;9.216;2022-08-19T20:44:31;22.70;81.90
610;DHT22;292;48.800;9.216;2022-08-19T20:46:58;22.70;81.90
610;DHT22;292;48.800;9.216;2022-08-19T20:49:25;22.70;81.90
610;DHT22;292;48.800;9.216;2022-08-19T20:51:52;22.70;81.90
610;DHT22;292;48.800;9.216;2022-08-19T20:54:20;22.70;81.90
610;DHT22;292;48.800;9.216;2022-08-19T20:56:50;22.70;81.90
610;DHT22;292;48.800;9.216;2022-08-19T20:59:20;22.70;81.70
610;DHT22;292;48.800;9.216;2022-08-19T21:01:49;22.70;81.60
610;DHT22;292;48.800;9.216;2022-08-19T21:04:17;22.70;81.60
610;DHT22;292;48.800;9.216;2022-08-19T21:06:45;22.70;81.40
610;DHT22;292;48.800;9.216;2022-08-19T21:09:14;22.70;81.30
610;DHT22;292;48.800;9.216;2022-08-19T21:11:42;22.70;81.30
610;DHT22;292;48.800;9.216;2022-08-19T21:14:10;22.70;81.40
610;DHT22;292;48.800;9.216;2022-08-19T21:16:39;22.70;81.40
610;DHT22;292;48.800;9.216;2022-08-19T21:19:19;22.70;81.30
610;DHT22;292;48.800;9.216;2022-08-19T21:21:47;22.80;81.30
610;DHT22;292;48.800;9.216;2022-08-19T21:24:15;22.80;81.00
610;DHT22;292;48.800;9.216;2022-08-19T21:26:44;22.80;81.00
610;DHT22;292;48.800;9.216;2022-08-19T21:29:11;22.80;80.70
610;DHT22;292;48.800;9.216;2022-08-19T21:31:40;22.80;80.70
610;DHT22;292;48.800;9.216;2022-08-19T21:34:07;22.80;80.60
610;DHT22;292;48.800;9.216;2022-08-19T21:36:40;22.80;80.60
610;DHT22;292;48.800;9.216;2022-08-19T21:39:13;22.80;80.40
610;DHT22;292;48.800;9.216;2022-08-19T21:41:43;22.80;80.30
610;DHT22;292;48.800;9.216;2022-08-19T21:44:12;22.80;80.30
610;DHT22;292;48.800;9.216;2022-08-19T21:46:41;22.80;80.00
610;DHT22;292;48.800;9.216;2022-08-19T21:49:09;22.80;80.00
610;DHT22;292;48.800;9.216;2022-08-19T21:51:37;22.80;80.10
610;DHT22;292;48.800;9.216;2022-08-19T21:54:10;22.80;80.10
610;DHT22;292;48.800;9.216;2022-08-19T21:56:38;22.80;79.90
610;DHT22;292;48.800;9.216;2022-08-19T21:59:06;22.80;79.70
610;DHT22;292;48.800;9.216;2022-08-19T22:01:36;22.80;79.60
610;DHT22;292;48.800;9.216;2022-08-19T22:04:06;22.80;79.10
610;DHT22;292;48.800;9.216;2022-08-19T22:06:37;22.80;78.70
610;DHT22;292;48.800;9.216;2022-08-19T22:09:05;22.80;77.80
610;DHT22;292;48.800;9.216;2022-08-19T22:11:34;22.90;76.40
610;DHT22;292;48.800;9.216;2022-08-19T22:14:04;22.90;75.70
610;DHT22;292;48.800;9.216;2022-08-19T22:16:31;23.00;75.50
610;DHT22;292;48.800;9.216;2022-08-19T22:18:59;23.00;74.40
610;DHT22;292;48.800;9.216;2022-08-19T22:21:39;23.00;74.40
610;DHT22;292;48.800;9.216;2022-08-19T22:24:07;23.10;73.70
610;DHT22;292;48.800;9.216;2022-08-19T22:26:39;23.10;72.50
610;DHT22;292;48.800;9.216;2022-08-19T22:29:06;23.20;71.10
610;DHT22;292;48.800;9.216;2022-08-19T22:31:35;23.30;70.00
610;DHT22;292;48.800;9.216;2022-08-19T22:34:03;23.40;69.30
610;DHT22;292;48.800;9.216;2022-08-19T22:36:34;23.50;68.50
610;DHT22;292;48.800;9.216;2022-08-19T22:39:03;23.50;67.50
610;DHT22;292;48.800;9.216;2022-08-19T22:45:28;23.70;66.30
610;DHT22;292;48.800;9.216;2022-08-19T22:51:25;23.90;64.60
610;DHT22;292;48.800;9.216;2022-08-19T22:54:12;23.90;64.10
610;DHT22;292;48.800;9.216;2022-08-19T22:56:41;24.00;63.70
610;DHT22;292;48.800;9.216;2022-08-19T22:59:09;24.00;63.40
610;DHT22;292;48.800;9.216;2022-08-19T23:01:37;24.00;63.10
610;DHT22;292;48.800;9.216;2022-08-19T23:04:06;24.10;62.80
610;DHT22;292;48.800;9.216;2022-08-19T23:06:34;24.10;62.50
610;DHT22;292;48.800;9.216;2022-08-19T23:09:03;24.10;62.10
610;DHT22;292;48.800;9.216;2022-08-19T23:11:33;24.20;62.00
610;DHT22;292;48.800;9.216;2022-08-19T23:14:00;24.20;61.80
610;DHT22;292;48.800;9.216;2022-08-19T23:16:28;24.20;61.80
610;DHT22;292;48.800;9.216;2022-08-19T23:18:57;24.20;61.70
610;DHT22;292;48.800;9.216;2022-08-19T23:21:25;24.20;61.80
610;DHT22;292;48.800;9.216;2022-08-19T23:23:52;24.20;61.80
610;DHT22;292;48.800;9.216;2022-08-19T23:26:21;24.10;62.00
610;DHT22;292;48.800;9.216;2022-08-19T23:28:54;24.10;62.10
610;DHT22;292;48.800;9.216;2022-08-19T23:31:47;24.10;62.10
610;DHT22;292;48.800;9.216;2022-08-19T23:34:16;24.10;62.30
610;DHT22;292;48.800;9.216;2022-08-19T23:36:45;24.10;62.30
610;DHT22;292;48.800;9.216;2022-08-19T23:39:12;24.10;62.50
610;DHT22;292;48.800;9.216;2022-08-19T23:41:39;24.00;62.70
610;DHT22;292;48.800;9.216;2022-08-19T23:44:08;24.00;62.80
610;DHT22;292;48.800;9.216;2022-08-19T23:46:36;24.00;63.00
610;DHT22;292;48.800;9.216;2022-08-19T23:49:05;23.90;63.10
610;DHT22;292;48.800;9.216;2022-08-19T23:51:32;23.90;63.40
610;DHT22;292;48.800;9.216;2022-08-19T23:54:01;23.80;63.60
610;DHT22;292;48.800;9.216;2022-08-19T23:56:27;23.80;63.70
610;DHT22;292;48.800;9.216;2022-08-19T23:58:55;23.80;64.00
